createdAt,value
2023-04-17T00:01:44.214Z,102172.28
2023-04-17T00:04:11.676Z,102171.31
2023-04-17T00:06:45.590Z,102175.81
2023-04-17T00:09:13.198Z,102177.59
2023-04-17T00:11:40.355Z,102182.91
2023-04-17T00:14:07.311Z,102178.47
2023-04-17T00:16:34.314Z,102187.38
2023-04-17T00:19:01.417Z,102179.53
2023-04-17T00:21:30.204Z,102179.53
2023-04-17T00:23:57.329Z,102177.94
2023-04-17T00:26:24.589Z,102180.53
2023-04-17T00:28:52.284Z,102185.00
2023-04-17T00:31:19.435Z,102184.13
2023-04-17T00:33:46.838Z,102185.94
2023-04-17T00:36:15.655Z,102190.31
2023-04-17T00:38:42.640Z,102192.16
2023-04-17T00:41:09.829Z,102190.47
2023-04-17T00:43:37.014Z,102193.13
2023-04-17T00:46:05.345Z,102193.16
2023-04-17T00:48:34.266Z,102185.13
2023-04-17T00:51:04.300Z,102190.50
2023-04-17T00:53:32.351Z,102191.50
2023-04-17T00:56:01.587Z,102186.19
2023-04-17T00:58:28.740Z,102183.66
2023-04-17T01:00:55.753Z,102185.41
2023-04-17T01:03:23.366Z,102193.38
2023-04-17T01:05:52.416Z,102185.53
2023-04-17T01:08:19.826Z,102184.66
2023-04-17T01:10:46.878Z,102187.28
2023-04-17T01:13:13.863Z,102182.88
2023-04-17T01:15:40.889Z,102190.84
2023-04-17T01:18:07.909Z,102189.97
2023-04-17T01:20:35.474Z,102188.25
2023-04-17T01:23:02.578Z,102182.09
2023-04-17T01:25:29.484Z,102182.22
2023-04-17T01:27:57.348Z,102181.22
2023-04-17T01:30:24.554Z,102186.53
2023-04-17T01:32:54.537Z,102191.84
2023-04-17T01:35:21.658Z,102191.84
2023-04-17T01:37:48.664Z,102191.78
2023-04-17T01:40:15.903Z,102188.25
2023-04-17T01:42:42.894Z,102190.19
2023-04-17T01:45:10.320Z,102195.41
2023-04-17T01:47:37.549Z,102196.28
2023-04-17T01:50:04.811Z,102187.53
2023-04-17T01:52:31.740Z,102192.84
2023-04-17T01:54:58.621Z,102192.75
2023-04-17T01:57:25.574Z,102189.25
2023-04-17T01:59:52.430Z,102190.09
2023-04-17T02:02:19.589Z,102190.97
2023-04-17T02:04:46.707Z,102193.63
2023-04-17T02:07:13.710Z,102196.28
2023-04-17T02:09:40.730Z,102189.25
2023-04-17T02:12:07.689Z,102190.97
2023-04-17T02:14:34.679Z,102193.59
2023-04-17T02:17:01.916Z,102187.41
2023-04-17T02:19:28.843Z,102193.59
2023-04-17T02:21:55.774Z,102197.16
2023-04-17T02:24:22.653Z,102196.16
2023-04-17T02:26:50.091Z,102194.44
2023-04-17T02:29:17.028Z,102196.28
2023-04-17T02:31:44.080Z,102191.91
2023-04-17T02:34:11.333Z,102189.25
2023-04-17T02:36:38.307Z,102196.28
2023-04-17T02:39:05.887Z,102198.94
2023-04-17T02:41:32.916Z,102198.03
2023-04-17T02:44:01.619Z,102189.19
2023-04-17T02:46:28.572Z,102194.44
2023-04-17T02:48:55.558Z,102196.16
2023-04-17T02:51:22.524Z,102197.03
2023-04-17T02:53:49.599Z,102191.72
2023-04-17T02:56:16.527Z,102203.22
2023-04-17T02:58:45.348Z,102201.47
2023-04-17T03:01:12.438Z,102196.94
2023-04-17T03:03:42.445Z,102195.16
2023-04-17T03:06:10.237Z,102191.59
2023-04-17T03:08:38.984Z,102199.59
2023-04-17T03:11:06.850Z,102194.38
2023-04-17T03:13:37.301Z,102201.44
2023-04-17T03:16:05.412Z,102203.22
2023-04-17T03:18:32.861Z,102189.94
2023-04-17T03:20:59.797Z,102201.34
2023-04-17T03:23:26.863Z,102203.88
2023-04-17T03:25:53.793Z,102205.75
2023-04-17T03:28:22.314Z,102202.97
2023-04-17T03:30:49.712Z,102198.56
2023-04-17T03:33:19.782Z,102200.47
2023-04-17T03:35:46.884Z,102210.94
2023-04-17T03:38:13.779Z,102214.41
2023-04-17T03:40:41.170Z,102211.84
2023-04-17T03:43:08.153Z,102206.53
2023-04-17T03:45:35.432Z,102214.41
2023-04-17T03:48:02.696Z,102217.94
2023-04-17T03:50:29.687Z,102211.72
2023-04-17T03:52:56.563Z,102213.59
2023-04-17T03:55:23.482Z,102220.47
2023-04-17T03:57:52.027Z,102210.75
2023-04-17T04:00:19.289Z,102214.28
2023-04-17T04:02:47.002Z,102216.09
2023-04-17T04:05:14.288Z,102218.75
2023-04-17T04:07:41.460Z,102218.75
2023-04-17T04:10:08.908Z,102224.88
2023-04-17T04:12:35.933Z,102216.91
2023-04-17T04:15:02.872Z,102222.06
2023-04-17T04:17:29.813Z,102223.00
2023-04-17T04:19:56.725Z,102224.72
2023-04-17T04:22:23.979Z,102228.19
2023-04-17T04:24:53.953Z,102230.91
2023-04-17T04:27:23.024Z,102230.84
2023-04-17T04:29:50.085Z,102236.97
2023-04-17T04:32:17.564Z,102228.97
2023-04-17T04:34:45.041Z,102230.97
2023-04-17T04:37:16.096Z,102229.97
2023-04-17T04:39:43.514Z,102243.19
2023-04-17T04:42:10.713Z,102242.28
2023-04-17T04:44:37.841Z,102243.19
2023-04-17T04:47:04.898Z,102242.34
2023-04-17T04:49:31.941Z,102250.25
2023-04-17T04:51:59.028Z,102253.72
2023-04-17T04:54:26.177Z,102245.94
2023-04-17T04:56:53.246Z,102250.16
2023-04-17T04:59:20.280Z,102248.28
2023-04-17T05:01:48.169Z,102250.03
2023-04-17T05:04:15.238Z,102251.72
2023-04-17T05:06:42.323Z,102261.44
2023-04-17T05:09:09.554Z,102265.84
2023-04-17T05:11:36.990Z,102265.84
2023-04-17T05:14:03.908Z,102267.63
2023-04-17T05:16:31.329Z,102265.91
2023-04-17T05:18:58.433Z,102276.47
2023-04-17T05:21:25.734Z,102273.00
2023-04-17T05:23:52.677Z,102276.59
2023-04-17T05:26:22.360Z,102272.22
2023-04-17T05:28:51.971Z,102278.28
2023-04-17T05:31:19.075Z,102275.53
2023-04-17T05:33:46.138Z,102281.94
2023-04-17T05:36:13.034Z,102283.41
2023-04-17T05:38:40.193Z,102292.13
2023-04-17T05:41:10.385Z,102289.50
2023-04-17T05:43:37.320Z,102292.03
2023-04-17T05:46:04.331Z,102296.81
2023-04-17T05:48:31.640Z,102306.56
2023-04-17T05:50:58.749Z,102304.91
2023-04-17T05:53:25.919Z,102309.28
2023-04-17T05:55:52.896Z,102308.19
2023-04-17T05:58:23.748Z,102309.06
2023-04-17T06:00:52.723Z,102318.72
2023-04-17T06:03:20.025Z,102319.53
2023-04-17T06:05:47.446Z,102327.56
2023-04-17T06:08:14.510Z,102322.13
2023-04-17T06:10:41.797Z,102326.69
2023-04-17T06:13:08.744Z,102326.66
2023-04-17T06:15:35.999Z,102336.28
2023-04-17T06:18:03.007Z,102333.63
2023-04-17T06:20:30.080Z,102338.06
2023-04-17T06:22:57.436Z,102325.78
2023-04-17T06:25:24.474Z,102337.00
2023-04-17T06:27:51.554Z,102338.44
2023-04-17T06:30:18.616Z,102337.56
2023-04-17T06:32:45.959Z,102345.84
2023-04-17T06:35:13.542Z,102343.00
2023-04-17T06:37:40.647Z,102342.53
2023-04-17T06:40:08.508Z,102347.19
2023-04-17T06:42:36.115Z,102341.53
2023-04-17T06:45:03.144Z,102357.16
2023-04-17T06:47:30.350Z,102358.81
2023-04-17T06:50:00.261Z,102358.50
2023-04-17T06:52:27.464Z,102360.91
2023-04-17T06:54:55.307Z,102360.88
2023-04-17T06:57:22.916Z,102373.28
2023-04-17T06:59:49.977Z,102372.19
2023-04-17T07:02:18.061Z,102378.22
2023-04-17T07:04:45.416Z,102379.84
2023-04-17T07:07:12.777Z,102371.56
2023-04-17T07:09:39.767Z,102382.31
2023-04-17T07:12:06.907Z,102380.06
2023-04-17T07:14:34.049Z,102385.50
2023-04-17T07:17:04.749Z,102389.09
2023-04-17T07:19:32.839Z,102393.22
2023-04-17T07:22:00.266Z,102388.06
2023-04-17T07:24:27.464Z,102393.53
2023-04-17T07:26:54.453Z,102395.63
2023-04-17T07:29:21.505Z,102394.31
2023-04-17T07:31:48.663Z,102398.28
2023-04-17T07:34:15.699Z,102390.91
2023-04-17T07:36:42.844Z,102405.06
2023-04-17T07:39:13.214Z,102406.72
2023-04-17T07:41:43.522Z,102411.56
2023-04-17T07:44:10.734Z,102411.75
2023-04-17T07:46:38.223Z,102406.91
2023-04-17T07:49:05.270Z,102410.78
2023-04-17T07:51:32.715Z,102414.72
2023-04-17T07:53:59.905Z,102430.88
2023-04-17T07:56:28.622Z,102428.13
2023-04-17T07:58:56.255Z,102430.31
2023-04-17T08:01:23.437Z,102435.16
2023-04-17T08:03:52.254Z,102437.22
2023-04-17T08:06:19.562Z,102437.38
2023-04-17T08:08:48.120Z,102442.00
2023-04-17T08:11:15.574Z,102434.53
2023-04-17T08:13:42.998Z,102445.72
2023-04-17T08:16:10.483Z,102448.19
2023-04-17T08:18:42.445Z,102445.50
2023-04-17T08:21:09.774Z,102450.63
2023-04-17T08:23:36.888Z,102446.09
2023-04-17T08:26:04.552Z,102455.78
2023-04-17T08:28:31.674Z,102453.88
2023-04-17T08:30:59.053Z,102452.06
2023-04-17T08:33:27.637Z,102451.19
2023-04-17T08:35:54.788Z,102460.84
2023-04-17T08:38:21.862Z,102462.59
2023-04-17T08:40:52.800Z,102459.22
2023-04-17T08:43:21.595Z,102468.88
2023-04-17T08:45:54.364Z,102474.25
2023-04-17T08:48:25.408Z,102470.72
2023-04-17T08:50:54.058Z,102476.03
2023-04-17T08:53:21.483Z,102477.03
2023-04-17T08:55:49.393Z,102476.94
2023-04-17T08:58:16.769Z,102480.41
2023-04-17T09:00:45.696Z,102480.22
2023-04-17T09:03:14.934Z,102483.53
2023-04-17T09:05:46.652Z,102481.59
2023-04-17T09:08:17.659Z,102493.06
2023-04-17T09:10:55.637Z,102490.50
2023-04-17T09:13:25.675Z,102494.81
2023-04-17T09:16:11.424Z,102494.81
2023-04-17T09:18:40.125Z,102492.00
2023-04-17T09:21:09.549Z,102496.78
2023-04-17T09:23:56.688Z,102502.00
2023-04-17T09:26:31.380Z,102507.03
2023-04-17T09:29:08.046Z,102502.31
2023-04-17T09:31:37.971Z,102501.16
2023-04-17T09:34:13.735Z,102504.25
2023-04-17T09:36:42.557Z,102505.38
2023-04-17T09:39:24.478Z,102510.81
2023-04-17T09:42:03.743Z,102509.25
2023-04-17T09:44:31.175Z,102515.53
2023-04-17T09:47:00.856Z,102519.97
2023-04-17T09:49:45.167Z,102520.97
2023-04-17T09:52:13.583Z,102514.78
2023-04-17T09:54:42.683Z,102524.53
2023-04-17T09:57:11.914Z,102522.00
2023-04-17T09:59:45.813Z,102517.63
2023-04-17T10:02:14.665Z,102522.00
2023-04-17T10:04:43.182Z,102531.81
2023-04-17T10:07:11.617Z,102531.81
2023-04-17T10:09:40.381Z,102530.53
2023-04-17T10:12:13.396Z,102527.72
2023-04-17T10:14:44.387Z,102531.38
2023-04-17T10:17:32.123Z,102542.81
2023-04-17T10:20:23.848Z,102536.53
2023-04-17T10:22:56.642Z,102540.03
2023-04-17T10:25:28.273Z,102547.06
2023-04-17T10:28:00.215Z,102545.97
2023-04-17T10:30:55.386Z,102548.59
2023-04-17T10:33:26.509Z,102549.69
2023-04-17T10:35:54.492Z,102546.84
2023-04-17T10:38:38.794Z,102553.06
2023-04-17T10:41:09.798Z,102555.78
2023-04-17T10:43:41.829Z,102553.94
2023-04-17T10:46:13.240Z,102554.00
2023-04-17T10:48:52.963Z,102545.75
2023-04-17T10:51:23.298Z,102556.47
2023-04-17T10:53:57.908Z,102560.13
2023-04-17T10:56:29.346Z,102559.25
2023-04-17T10:59:01.614Z,102559.25
2023-04-17T11:01:38.260Z,102570.75
2023-04-17T11:04:06.720Z,102564.38
2023-04-17T11:06:38.369Z,102569.41
2023-04-17T11:09:09.657Z,102574.09
2023-04-17T11:11:45.249Z,102579.53
2023-04-17T11:14:18.151Z,102577.53
2023-04-17T11:16:47.296Z,102576.66
2023-04-17T11:19:32.794Z,102579.81
2023-04-17T11:22:01.785Z,102577.25
2023-04-17T11:24:30.830Z,102581.78
2023-04-17T11:27:00.588Z,102575.50
2023-04-17T11:29:28.425Z,102577.34
2023-04-17T11:31:57.141Z,102576.47
2023-04-17T11:34:27.145Z,102570.28
2023-04-17T11:36:59.433Z,102584.44
2023-04-17T11:39:29.429Z,102578.22
2023-04-17T11:41:59.905Z,102578.22
2023-04-17T11:44:29.260Z,102578.06
2023-04-17T11:47:01.166Z,102582.44
2023-04-17T11:49:30.756Z,102579.81
2023-04-17T11:52:01.603Z,102585.09
2023-04-17T11:54:28.876Z,102582.44
2023-04-17T11:57:04.743Z,102583.25
2023-04-17T11:59:36.200Z,102587.56
2023-04-17T12:02:04.501Z,102584.81
2023-04-17T12:04:35.087Z,102590.13
2023-04-17T12:07:07.763Z,102587.41
2023-04-17T12:09:35.540Z,102589.94
2023-04-17T12:12:07.202Z,102587.16
2023-04-17T12:14:34.812Z,102592.38
2023-04-17T12:17:02.999Z,102589.56
2023-04-17T12:19:32.303Z,102583.25
2023-04-17T12:22:00.225Z,102592.91
2023-04-17T12:24:27.668Z,102590.22
2023-04-17T12:26:55.014Z,102581.41
2023-04-17T12:29:36.146Z,102592.31
2023-04-17T12:32:11.115Z,102590.44
2023-04-17T12:34:38.397Z,102589.56
2023-04-17T12:37:05.930Z,102594.97
2023-04-17T12:39:33.738Z,102593.19
2023-04-17T12:42:01.029Z,102601.00
2023-04-17T12:44:28.263Z,102600.03
2023-04-17T12:46:55.474Z,102598.19
2023-04-17T12:49:24.100Z,102593.44
2023-04-17T12:51:51.728Z,102595.72
2023-04-17T12:54:19.280Z,102601.63
2023-04-17T12:56:46.302Z,102603.25
2023-04-17T12:59:13.410Z,102602.06
2023-04-17T13:01:40.567Z,102609.91
2023-04-17T13:04:07.988Z,102604.41
2023-04-17T13:06:35.420Z,102610.72
2023-04-17T13:09:02.830Z,102610.47
2023-04-17T13:11:30.217Z,102612.03
2023-04-17T13:13:57.433Z,102605.41
2023-04-17T13:16:24.822Z,102603.34
2023-04-17T13:18:52.557Z,102598.72
2023-04-17T13:21:19.816Z,102600.31
2023-04-17T13:23:46.939Z,102606.22
2023-04-17T13:26:14.025Z,102602.47
2023-04-17T13:28:41.049Z,102604.09
2023-04-17T13:31:09.253Z,102605.63
2023-04-17T13:33:36.628Z,102602.84
2023-04-17T13:36:04.122Z,102610.63
2023-04-17T13:38:31.809Z,102606.06
2023-04-17T13:40:59.477Z,102613.84
2023-04-17T13:43:26.610Z,102609.97
2023-04-17T13:45:55.661Z,102612.56
2023-04-17T13:48:22.851Z,102614.63
2023-04-17T13:50:50.178Z,102611.84
2023-04-17T13:53:17.473Z,102611.16
2023-04-17T13:55:44.796Z,102610.38
2023-04-17T13:58:12.438Z,102603.19
2023-04-17T14:00:39.638Z,102608.38
2023-04-17T14:03:07.024Z,102602.06
2023-04-17T14:05:35.322Z,102606.47
2023-04-17T14:08:02.573Z,102615.03
2023-04-17T14:10:29.694Z,102611.44
2023-04-17T14:12:56.935Z,102614.78
2023-04-17T14:15:24.374Z,102614.50
2023-04-17T14:17:51.515Z,102618.63
2023-04-17T14:20:20.418Z,102612.06
2023-04-17T14:22:47.590Z,102620.59
2023-04-17T14:25:15.475Z,102626.53
2023-04-17T14:27:42.820Z,102627.94
2023-04-17T14:30:10.315Z,102624.94
2023-04-17T14:32:38.844Z,102625.44
2023-04-17T14:35:06.946Z,102624.31
2023-04-17T14:37:34.908Z,102620.41
2023-04-17T14:40:01.949Z,102621.97
2023-04-17T14:42:29.346Z,102623.50
2023-04-17T14:44:56.422Z,102620.63
2023-04-17T14:47:23.580Z,102625.75
2023-04-17T14:49:51.445Z,102626.47
2023-04-17T14:52:18.745Z,102624.59
2023-04-17T14:54:45.883Z,102628.03
2023-04-17T14:57:13.140Z,102631.28
2023-04-17T14:59:40.452Z,102629.41
2023-04-17T15:02:08.069Z,102631.84
2023-04-17T15:04:35.311Z,102630.03
2023-04-17T15:07:05.564Z,102627.44
2023-04-17T15:09:32.659Z,102632.72
2023-04-17T15:12:01.327Z,102626.66
2023-04-17T15:14:30.295Z,102634.66
2023-04-17T15:16:59.004Z,102634.47
2023-04-17T15:19:26.259Z,102636.41
2023-04-17T15:21:53.634Z,102638.69
2023-04-17T15:24:21.033Z,102633.25
2023-04-17T15:26:49.665Z,102643.25
2023-04-17T15:29:17.576Z,102636.41
2023-04-17T15:31:45.349Z,102641.47
2023-04-17T15:34:14.363Z,102635.81
2023-04-17T15:36:45.057Z,102634.75
2023-04-17T15:39:13.122Z,102641.59
2023-04-17T15:41:41.105Z,102636.28
2023-04-17T15:44:08.309Z,102645.16
2023-04-17T15:46:35.540Z,102641.81
2023-04-17T15:49:22.115Z,102646.31
2023-04-17T15:51:49.270Z,102645.44
2023-04-17T15:54:17.162Z,102644.19
2023-04-17T15:56:44.328Z,102649.31
2023-04-17T15:59:11.620Z,102650.69
2023-04-17T16:01:38.875Z,102651.56
2023-04-17T16:04:06.724Z,102654.31
2023-04-17T16:06:34.403Z,102656.09
2023-04-17T16:09:02.106Z,102650.16
2023-04-17T16:11:29.402Z,102658.19
2023-04-17T16:13:56.651Z,102664.38
2023-04-17T16:16:23.934Z,102659.91
2023-04-17T16:18:51.193Z,102661.81
2023-04-17T16:21:18.439Z,102659.06
2023-04-17T16:23:46.284Z,102667.03
2023-04-17T16:26:14.562Z,102659.19
2023-04-17T16:28:41.765Z,102656.06
2023-04-17T16:31:09.019Z,102663.66
2023-04-17T16:33:36.263Z,102659.19
2023-04-17T16:36:03.496Z,102657.53
2023-04-17T16:38:30.537Z,102659.28
2023-04-17T16:40:59.463Z,102662.47
2023-04-17T16:43:27.274Z,102672.25
2023-04-17T16:45:54.335Z,102672.25
2023-04-17T16:48:21.715Z,102676.59
2023-04-17T16:50:49.020Z,102681.91
2023-04-17T16:53:16.503Z,102683.66
2023-04-17T16:55:43.534Z,102679.63
2023-04-17T16:58:11.215Z,102679.88
2023-04-17T17:00:38.623Z,102679.13
2023-04-17T17:03:06.195Z,102684.53
2023-04-17T17:05:33.338Z,102678.28
2023-04-17T17:08:00.555Z,102686.13
2023-04-17T17:10:28.040Z,102677.34
2023-04-17T17:12:55.169Z,102690.78
2023-04-17T17:15:22.277Z,102686.41
2023-04-17T17:17:49.492Z,102691.78
2023-04-17T17:20:17.014Z,102680.25
2023-04-17T17:22:44.515Z,102682.88
2023-04-17T17:25:12.036Z,102690.78
2023-04-17T17:27:42.086Z,102693.19
2023-04-17T17:30:09.742Z,102691.97
2023-04-17T17:32:37.079Z,102689.16
2023-04-17T17:35:04.406Z,102693.50
2023-04-17T17:37:31.724Z,102690.72
2023-04-17T17:40:00.118Z,102702.97
2023-04-17T17:42:27.231Z,102703.63
2023-04-17T17:44:54.346Z,102704.50
2023-04-17T17:47:21.470Z,102705.38
2023-04-17T17:49:49.952Z,102710.63
2023-04-17T17:52:17.184Z,102709.63
2023-04-17T17:54:44.368Z,102710.69
2023-04-17T17:57:11.590Z,102703.16
2023-04-17T17:59:38.856Z,102715.69
2023-04-17T18:02:06.502Z,102716.69
2023-04-17T18:04:35.040Z,102712.03
2023-04-17T18:07:02.431Z,102715.78
2023-04-17T18:09:29.743Z,102715.03
2023-04-17T18:11:57.394Z,102717.50
2023-04-17T18:14:24.512Z,102718.50
2023-04-17T18:16:52.252Z,102713.16
2023-04-17T18:19:19.561Z,102718.25
2023-04-17T18:21:47.803Z,102717.50
2023-04-17T18:24:15.018Z,102717.38
2023-04-17T18:26:42.306Z,102720.03
2023-04-17T18:29:09.453Z,102723.69
2023-04-17T18:31:36.799Z,102725.97
2023-04-17T18:34:05.116Z,102721.38
2023-04-17T18:36:32.482Z,102726.81
2023-04-17T18:39:00.857Z,102733.09
2023-04-17T18:41:30.321Z,102739.31
2023-04-17T18:43:58.983Z,102734.69
2023-04-17T18:46:27.778Z,102738.16
2023-04-17T18:48:55.255Z,102743.34
2023-04-17T18:51:24.046Z,102743.31
2023-04-17T18:53:53.168Z,102743.34
2023-04-17T18:56:21.518Z,102745.97
2023-04-17T18:58:50.455Z,102748.56
2023-04-17T19:01:19.645Z,102755.75
2023-04-17T19:03:47.761Z,102755.69
2023-04-17T19:06:15.629Z,102758.44
2023-04-17T19:08:46.665Z,102760.97
2023-04-17T19:11:14.522Z,102766.19
2023-04-17T19:13:43.258Z,102766.84
2023-04-17T19:16:12.847Z,102773.22
2023-04-17T19:18:41.166Z,102771.38
2023-04-17T19:21:08.795Z,102778.44
2023-04-17T19:23:38.940Z,102781.03
2023-04-17T19:26:06.384Z,102783.63
2023-04-17T19:28:34.129Z,102776.56
2023-04-17T19:31:04.917Z,102780.97
2023-04-17T19:33:33.030Z,102787.38
2023-04-17T19:36:05.047Z,102794.41
2023-04-17T19:38:33.883Z,102787.13
2023-04-17T19:41:18.052Z,102795.78
2023-04-17T19:43:50.322Z,102794.88
2023-04-17T19:46:20.669Z,102799.13
2023-04-17T19:48:51.662Z,102801.00
2023-04-17T19:51:20.733Z,102798.59
2023-04-17T19:53:48.855Z,102800.19
2023-04-17T19:56:16.507Z,102806.59
2023-04-17T19:58:44.204Z,102803.91
2023-04-17T20:01:11.626Z,102809.19
2023-04-17T20:03:40.091Z,102820.22
2023-04-17T20:06:10.379Z,102814.28
2023-04-17T20:08:38.034Z,102825.66
2023-04-17T20:11:06.790Z,102826.53
2023-04-17T20:13:35.901Z,102828.28
2023-04-17T20:16:03.502Z,102823.94
2023-04-17T20:18:32.160Z,102824.81
2023-04-17T20:21:02.074Z,102831.00
2023-04-17T20:23:30.266Z,102831.16
2023-04-17T20:25:57.486Z,102835.63
2023-04-17T20:28:25.250Z,102841.06
2023-04-17T20:30:52.903Z,102839.84
2023-04-17T20:33:21.974Z,102840.19
2023-04-17T20:35:50.372Z,102838.03
2023-04-17T20:38:18.495Z,102844.97
2023-04-17T20:40:47.550Z,102848.47
2023-04-17T20:43:14.893Z,102850.75
2023-04-17T20:45:43.766Z,102845.53
2023-04-17T20:48:11.346Z,102855.28
2023-04-17T20:50:38.671Z,102839.31
2023-04-17T20:53:06.711Z,102851.69
2023-04-17T20:55:34.509Z,102847.16
2023-04-17T20:58:04.805Z,102852.50
2023-04-17T21:00:32.210Z,102853.38
2023-04-17T21:02:59.480Z,102849.16
2023-04-17T21:05:27.846Z,102855.28
2023-04-17T21:07:55.267Z,102856.50
2023-04-17T21:10:22.634Z,102862.50
2023-04-17T21:12:50.045Z,102864.78
2023-04-17T21:15:17.338Z,102873.97
2023-04-17T21:17:48.753Z,102873.38
2023-04-17T21:20:16.200Z,102881.59
2023-04-17T21:22:44.109Z,102873.75
2023-04-17T21:25:12.142Z,102879.34
2023-04-17T21:27:41.534Z,102885.66
2023-04-17T21:30:11.049Z,102883.09
2023-04-17T21:32:40.186Z,102888.56
2023-04-17T21:35:07.734Z,102892.25
2023-04-17T21:37:34.932Z,102897.69
2023-04-17T21:40:02.309Z,102900.53
2023-04-17T21:42:29.412Z,102897.91
2023-04-17T21:44:56.889Z,102907.81
2023-04-17T21:47:24.124Z,102902.69
2023-04-17T21:49:51.259Z,102904.44
2023-04-17T21:52:18.599Z,102909.00
2023-04-17T21:54:46.167Z,102907.34
2023-04-17T21:57:13.608Z,102909.09
2023-04-17T21:59:40.919Z,102902.09
2023-04-17T22:02:08.184Z,102904.06
2023-04-17T22:04:35.398Z,102908.44
2023-04-17T22:07:02.647Z,102908.56
2023-04-17T22:09:29.744Z,102917.53
2023-04-17T22:11:57.551Z,102907.88
2023-04-17T22:14:24.732Z,102909.72
2023-04-17T22:16:51.828Z,102917.75
2023-04-17T22:19:18.950Z,102919.56
2023-04-17T22:21:45.930Z,102915.25
2023-04-17T22:24:13.087Z,102924.13
2023-04-17T22:26:40.336Z,102920.66
2023-04-17T22:29:07.332Z,102928.72
2023-04-17T22:31:34.515Z,102924.41
2023-04-17T22:34:01.638Z,102930.66
2023-04-17T22:36:29.022Z,102926.34
2023-04-17T22:38:56.296Z,102927.28
2023-04-17T22:41:23.499Z,102930.81
2023-04-17T22:43:50.585Z,102929.16
2023-04-17T22:46:17.639Z,102941.63
2023-04-17T22:48:47.871Z,102932.84
2023-04-17T22:51:15.427Z,102934.69
2023-04-17T22:53:43.147Z,102936.53
2023-04-17T22:56:12.574Z,102949.06
2023-04-17T22:58:39.820Z,102942.88
2023-04-17T23:01:06.962Z,102950.91
2023-04-17T23:03:35.360Z,102953.59
2023-04-17T23:06:03.499Z,102942.16
2023-04-17T23:08:31.401Z,102943.13
2023-04-17T23:11:02.367Z,102952.06
2023-04-17T23:13:31.991Z,102953.91
2023-04-17T23:15:59.012Z,102949.47
2023-04-17T23:18:26.004Z,102962.84
2023-04-17T23:20:52.958Z,102960.22
2023-04-17T23:23:19.945Z,102960.28
2023-04-17T23:25:46.921Z,102957.69
2023-04-17T23:28:14.170Z,102960.38
2023-04-17T23:30:41.187Z,102959.53
2023-04-17T23:33:08.544Z,102965.75
2023-04-17T23:35:35.796Z,102955.28
2023-04-17T23:38:02.734Z,102964.94
2023-04-17T23:40:29.859Z,102965.91
2023-04-17T23:42:56.841Z,102970.44
2023-04-17T23:45:23.760Z,102976.63
2023-04-17T23:47:50.936Z,102974.06
2023-04-17T23:50:18.026Z,102982.06
2023-04-17T23:52:45.045Z,102986.56
2023-04-17T23:55:12.080Z,102987.50
2023-04-17T23:57:39.274Z,102989.34
